sensor_id;sensor_type;location;lat;lon;timestamp;P1;durP1;ratioP1;P2;durP2;ratioP2
10641;SDS011;5369;49.586;8.646;2022-08-21T00:00:05;4.50;;;3.60;;
10641;SDS011;5369;49.586;8.646;2022-08-21T00:02:43;6.53;;;3.90;;
10641;SDS011;5369;49.586;8.646;2022-08-21T00:05:10;4.30;;;3.87;;
10641;SDS011;5369;49.586;8.646;2022-08-21T00:07:36;4.30;;;3.63;;
10641;SDS011;5369;49.586;8.646;2022-08-21T00:10:03;4.33;;;3.80;;
10641;SDS011;5369;49.586;8.646;2022-08-21T00:12:29;4.50;;;4.00;;
10641;SDS011;5369;49.586;8.646;2022-08-21T00:14:56;8.13;;;4.67;;
10641;SDS011;5369;49.586;8.646;2022-08-21T00:17:22;7.80;;;5.10;;
10641;SDS011;5369;49.586;8.646;2022-08-21T00:19:48;6.67;;;4.30;;
10641;SDS011;5369;49.586;8.646;2022-08-21T00:22:15;4.40;;;4.00;;
10641;SDS011;5369;49.586;8.646;2022-08-21T00:24:41;4.33;;;3.80;;
10641;SDS011;5369;49.586;8.646;2022-08-21T00:27:07;5.37;;;3.70;;
10641;SDS011;5369;49.586;8.646;2022-08-21T00:29:33;5.27;;;4.27;;
10641;SDS011;5369;49.586;8.646;2022-08-21T00:31:59;5.57;;;4.23;;
10641;SDS011;5369;49.586;8.646;2022-08-21T00:34:25;5.30;;;4.10;;
10641;SDS011;5369;49.586;8.646;2022-08-21T00:36:51;6.53;;;4.03;;
10641;SDS011;5369;49.586;8.646;2022-08-21T00:39:18;4.00;;;3.70;;
10641;SDS011;5369;49.586;8.646;2022-08-21T00:41:44;4.87;;;4.20;;
10641;SDS011;5369;49.586;8.646;2022-08-21T00:44:11;5.80;;;4.07;;
10641;SDS011;5369;49.586;8.646;2022-08-21T00:46:38;4.90;;;4.03;;
10641;SDS011;5369;49.586;8.646;2022-08-21T00:49:05;4.60;;;4.10;;
10641;SDS011;5369;49.586;8.646;2022-08-21T00:51:34;5.77;;;4.10;;
10641;SDS011;5369;49.586;8.646;2022-08-21T00:54:01;5.80;;;3.97;;
10641;SDS011;5369;49.586;8.646;2022-08-21T00:56:27;4.63;;;4.10;;
10641;SDS011;5369;49.586;8.646;2022-08-21T00:58:54;4.73;;;4.00;;
10641;SDS011;5369;49.586;8.646;2022-08-21T01:01:21;5.87;;;4.37;;
10641;SDS011;5369;49.586;8.646;2022-08-21T01:03:48;4.43;;;4.03;;
10641;SDS011;5369;49.586;8.646;2022-08-21T01:06:14;5.93;;;3.70;;
10641;SDS011;5369;49.586;8.646;2022-08-21T01:08:41;6.53;;;4.30;;
10641;SDS011;5369;49.586;8.646;2022-08-21T01:11:07;4.43;;;3.83;;
10641;SDS011;5369;49.586;8.646;2022-08-21T01:13:34;4.23;;;3.83;;
10641;SDS011;5369;49.586;8.646;2022-08-21T01:16:01;5.20;;;3.63;;
10641;SDS011;5369;49.586;8.646;2022-08-21T01:18:28;4.50;;;4.10;;
10641;SDS011;5369;49.586;8.646;2022-08-21T01:23:27;4.83;;;4.07;;
10641;SDS011;5369;49.586;8.646;2022-08-21T01:25:53;6.83;;;4.47;;
10641;SDS011;5369;49.586;8.646;2022-08-21T01:28:19;5.93;;;4.30;;
10641;SDS011;5369;49.586;8.646;2022-08-21T01:30:46;6.33;;;4.30;;
10641;SDS011;5369;49.586;8.646;2022-08-21T01:33:14;7.23;;;4.53;;
10641;SDS011;5369;49.586;8.646;2022-08-21T01:35:40;5.27;;;4.30;;
10641;SDS011;5369;49.586;8.646;2022-08-21T01:38:07;4.90;;;4.13;;
10641;SDS011;5369;49.586;8.646;2022-08-21T01:40:33;5.70;;;4.60;;
10641;SDS011;5369;49.586;8.646;2022-08-21T01:43:00;5.70;;;4.30;;
10641;SDS011;5369;49.586;8.646;2022-08-21T01:45:26;5.47;;;4.37;;
10641;SDS011;5369;49.586;8.646;2022-08-21T01:47:52;5.10;;;4.33;;
10641;SDS011;5369;49.586;8.646;2022-08-21T01:50:19;4.93;;;4.43;;
10641;SDS011;5369;49.586;8.646;2022-08-21T01:52:45;4.75;;;4.20;;
10641;SDS011;5369;49.586;8.646;2022-08-21T01:55:12;4.50;;;4.10;;
10641;SDS011;5369;49.586;8.646;2022-08-21T01:57:39;4.70;;;4.20;;
10641;SDS011;5369;49.586;8.646;2022-08-21T02:00:06;4.70;;;4.20;;
10641;SDS011;5369;49.586;8.646;2022-08-21T02:02:37;6.03;;;3.87;;
10641;SDS011;5369;49.586;8.646;2022-08-21T02:05:04;4.87;;;4.10;;
10641;SDS011;5369;49.586;8.646;2022-08-21T02:07:40;4.70;;;4.17;;
10641;SDS011;5369;49.586;8.646;2022-08-21T02:10:08;6.87;;;4.30;;
10641;SDS011;5369;49.586;8.646;2022-08-21T02:12:35;4.47;;;3.80;;
10641;SDS011;5369;49.586;8.646;2022-08-21T02:15:01;5.63;;;4.30;;
10641;SDS011;5369;49.586;8.646;2022-08-21T02:17:36;4.40;;;4.00;;
10641;SDS011;5369;49.586;8.646;2022-08-21T02:20:02;5.07;;;4.20;;
10641;SDS011;5369;49.586;8.646;2022-08-21T02:22:28;5.70;;;4.47;;
10641;SDS011;5369;49.586;8.646;2022-08-21T02:24:55;4.63;;;4.10;;
10641;SDS011;5369;49.586;8.646;2022-08-21T02:27:24;5.53;;;3.97;;
10641;SDS011;5369;49.586;8.646;2022-08-21T02:29:50;5.30;;;4.43;;
10641;SDS011;5369;49.586;8.646;2022-08-21T02:32:16;4.80;;;4.37;;
10641;SDS011;5369;49.586;8.646;2022-08-21T02:34:43;4.83;;;4.33;;
10641;SDS011;5369;49.586;8.646;2022-08-21T02:37:09;4.57;;;4.13;;
10641;SDS011;5369;49.586;8.646;2022-08-21T02:39:35;6.53;;;4.20;;
10641;SDS011;5369;49.586;8.646;2022-08-21T02:42:01;4.60;;;4.03;;
10641;SDS011;5369;49.586;8.646;2022-08-21T02:44:27;5.87;;;4.53;;
10641;SDS011;5369;49.586;8.646;2022-08-21T02:46:53;5.23;;;4.30;;
10641;SDS011;5369;49.586;8.646;2022-08-21T02:49:20;5.70;;;3.90;;
10641;SDS011;5369;49.586;8.646;2022-08-21T02:51:46;5.53;;;3.97;;
10641;SDS011;5369;49.586;8.646;2022-08-21T02:54:12;5.43;;;4.37;;
10641;SDS011;5369;49.586;8.646;2022-08-21T02:56:38;5.23;;;4.47;;
10641;SDS011;5369;49.586;8.646;2022-08-21T02:59:05;5.37;;;4.63;;
10641;SDS011;5369;49.586;8.646;2022-08-21T03:01:31;5.50;;;5.00;;
10641;SDS011;5369;49.586;8.646;2022-08-21T03:03:57;5.87;;;4.60;;
10641;SDS011;5369;49.586;8.646;2022-08-21T03:06:23;5.13;;;4.60;;
10641;SDS011;5369;49.586;8.646;2022-08-21T03:08:50;5.37;;;4.63;;
10641;SDS011;5369;49.586;8.646;2022-08-21T03:11:16;6.27;;;4.50;;
10641;SDS011;5369;49.586;8.646;2022-08-21T03:13:42;6.03;;;4.50;;
10641;SDS011;5369;49.586;8.646;2022-08-21T03:16:08;5.33;;;4.53;;
10641;SDS011;5369;49.586;8.646;2022-08-21T03:18:35;6.53;;;4.80;;
10641;SDS011;5369;49.586;8.646;2022-08-21T03:21:01;5.93;;;4.63;;
10641;SDS011;5369;49.586;8.646;2022-08-21T03:23:28;6.50;;;5.17;;
10641;SDS011;5369;49.586;8.646;2022-08-21T03:25:55;6.23;;;4.90;;
10641;SDS011;5369;49.586;8.646;2022-08-21T03:28:23;5.20;;;4.70;;
10641;SDS011;5369;49.586;8.646;2022-08-21T03:30:50;7.27;;;4.80;;
10641;SDS011;5369;49.586;8.646;2022-08-21T03:33:17;5.57;;;4.97;;
10641;SDS011;5369;49.586;8.646;2022-08-21T03:35:44;5.97;;;4.90;;
10641;SDS011;5369;49.586;8.646;2022-08-21T03:38:11;5.80;;;4.57;;
10641;SDS011;5369;49.586;8.646;2022-08-21T03:40:38;5.07;;;4.57;;
10641;SDS011;5369;49.586;8.646;2022-08-21T03:43:04;5.53;;;4.60;;
10641;SDS011;5369;49.586;8.646;2022-08-21T03:45:30;6.20;;;5.17;;
10641;SDS011;5369;49.586;8.646;2022-08-21T03:47:58;6.47;;;4.77;;
10641;SDS011;5369;49.586;8.646;2022-08-21T03:50:25;6.07;;;5.13;;
10641;SDS011;5369;49.586;8.646;2022-08-21T03:52:52;7.03;;;5.87;;
10641;SDS011;5369;49.586;8.646;2022-08-21T03:55:18;7.10;;;6.00;;
10641;SDS011;5369;49.586;8.646;2022-08-21T03:57:44;8.27;;;6.23;;
10641;SDS011;5369;49.586;8.646;2022-08-21T04:00:11;6.73;;;5.60;;
10641;SDS011;5369;49.586;8.646;2022-08-21T04:02:38;7.33;;;5.77;;
10641;SDS011;5369;49.586;8.646;2022-08-21T04:05:05;5.80;;;5.20;;
10641;SDS011;5369;49.586;8.646;2022-08-21T04:07:31;6.53;;;5.40;;
10641;SDS011;5369;49.586;8.646;2022-08-21T04:09:57;8.73;;;6.00;;
10641;SDS011;5369;49.586;8.646;2022-08-21T04:12:23;6.97;;;5.90;;
10641;SDS011;5369;49.586;8.646;2022-08-21T04:14:49;7.37;;;5.53;;
10641;SDS011;5369;49.586;8.646;2022-08-21T04:17:16;6.60;;;5.20;;
10641;SDS011;5369;49.586;8.646;2022-08-21T04:19:43;7.53;;;5.47;;
10641;SDS011;5369;49.586;8.646;2022-08-21T04:22:09;6.20;;;5.20;;
10641;SDS011;5369;49.586;8.646;2022-08-21T04:24:35;8.43;;;5.93;;
10641;SDS011;5369;49.586;8.646;2022-08-21T04:27:01;7.37;;;5.00;;
10641;SDS011;5369;49.586;8.646;2022-08-21T04:29:27;6.90;;;6.20;;
10641;SDS011;5369;49.586;8.646;2022-08-21T04:31:54;6.70;;;5.40;;
10641;SDS011;5369;49.586;8.646;2022-08-21T04:34:20;5.97;;;4.80;;
10641;SDS011;5369;49.586;8.646;2022-08-21T04:36:46;6.97;;;6.23;;
10641;SDS011;5369;49.586;8.646;2022-08-21T04:39:12;6.83;;;5.97;;
10641;SDS011;5369;49.586;8.646;2022-08-21T04:41:39;6.57;;;5.70;;
10641;SDS011;5369;49.586;8.646;2022-08-21T04:44:06;7.83;;;5.83;;
10641;SDS011;5369;49.586;8.646;2022-08-21T04:46:33;6.47;;;5.60;;
10641;SDS011;5369;49.586;8.646;2022-08-21T04:48:59;6.53;;;5.77;;
10641;SDS011;5369;49.586;8.646;2022-08-21T04:51:33;6.20;;;5.50;;
10641;SDS011;5369;49.586;8.646;2022-08-21T04:54:02;6.90;;;5.70;;
10641;SDS011;5369;49.586;8.646;2022-08-21T04:56:35;6.10;;;5.50;;
10641;SDS011;5369;49.586;8.646;2022-08-21T04:59:04;6.03;;;5.37;;
10641;SDS011;5369;49.586;8.646;2022-08-21T05:01:32;8.60;;;6.13;;
10641;SDS011;5369;49.586;8.646;2022-08-21T05:03:59;6.90;;;5.37;;
10641;SDS011;5369;49.586;8.646;2022-08-21T05:06:27;6.93;;;5.53;;
10641;SDS011;5369;49.586;8.646;2022-08-21T05:08:54;6.30;;;5.70;;
10641;SDS011;5369;49.586;8.646;2022-08-21T05:11:21;7.90;;;5.90;;
10641;SDS011;5369;49.586;8.646;2022-08-21T05:13:48;7.20;;;5.70;;
10641;SDS011;5369;49.586;8.646;2022-08-21T05:16:14;8.93;;;6.40;;
10641;SDS011;5369;49.586;8.646;2022-08-21T05:18:41;6.97;;;5.60;;
10641;SDS011;5369;49.586;8.646;2022-08-21T05:21:07;6.23;;;5.60;;
10641;SDS011;5369;49.586;8.646;2022-08-21T05:23:34;6.87;;;5.60;;
10641;SDS011;5369;49.586;8.646;2022-08-21T05:26:01;6.87;;;6.17;;
10641;SDS011;5369;49.586;8.646;2022-08-21T05:28:29;7.40;;;5.63;;
10641;SDS011;5369;49.586;8.646;2022-08-21T05:30:55;6.20;;;5.60;;
10641;SDS011;5369;49.586;8.646;2022-08-21T05:33:22;6.27;;;5.67;;
10641;SDS011;5369;49.586;8.646;2022-08-21T05:35:51;6.50;;;5.87;;
10641;SDS011;5369;49.586;8.646;2022-08-21T05:38:18;6.50;;;5.73;;
10641;SDS011;5369;49.586;8.646;2022-08-21T05:40:45;8.60;;;5.87;;
10641;SDS011;5369;49.586;8.646;2022-08-21T05:43:11;6.43;;;5.83;;
10641;SDS011;5369;49.586;8.646;2022-08-21T05:45:38;6.00;;;5.33;;
10641;SDS011;5369;49.586;8.646;2022-08-21T05:48:07;6.60;;;5.77;;
10641;SDS011;5369;49.586;8.646;2022-08-21T05:50:34;6.33;;;5.50;;
10641;SDS011;5369;49.586;8.646;2022-08-21T05:53:03;6.10;;;5.50;;
10641;SDS011;5369;49.586;8.646;2022-08-21T05:55:29;6.10;;;5.20;;
10641;SDS011;5369;49.586;8.646;2022-08-21T05:57:55;6.17;;;5.57;;
10641;SDS011;5369;49.586;8.646;2022-08-21T06:00:22;6.47;;;5.23;;
10641;SDS011;5369;49.586;8.646;2022-08-21T06:02:48;6.17;;;5.37;;
10641;SDS011;5369;49.586;8.646;2022-08-21T06:05:16;8.17;;;5.80;;
10641;SDS011;5369;49.586;8.646;2022-08-21T06:07:42;7.03;;;5.50;;
10641;SDS011;5369;49.586;8.646;2022-08-21T06:10:09;5.80;;;5.30;;
10641;SDS011;5369;49.586;8.646;2022-08-21T06:12:35;6.10;;;5.50;;
10641;SDS011;5369;49.586;8.646;2022-08-21T06:15:02;6.23;;;5.30;;
10641;SDS011;5369;49.586;8.646;2022-08-21T06:17:28;6.43;;;5.00;;
10641;SDS011;5369;49.586;8.646;2022-08-21T06:19:54;5.63;;;5.13;;
10641;SDS011;5369;49.586;8.646;2022-08-21T06:22:21;5.80;;;5.20;;
10641;SDS011;5369;49.586;8.646;2022-08-21T06:24:47;5.77;;;5.10;;
10641;SDS011;5369;49.586;8.646;2022-08-21T06:27:13;7.90;;;5.60;;
10641;SDS011;5369;49.586;8.646;2022-08-21T06:29:40;6.70;;;5.17;;
10641;SDS011;5369;49.586;8.646;2022-08-21T06:32:10;7.37;;;5.57;;
10641;SDS011;5369;49.586;8.646;2022-08-21T06:34:37;8.40;;;6.07;;
10641;SDS011;5369;49.586;8.646;2022-08-21T06:37:03;7.63;;;5.97;;
10641;SDS011;5369;49.586;8.646;2022-08-21T06:39:30;7.23;;;5.57;;
10641;SDS011;5369;49.586;8.646;2022-08-21T06:41:56;7.10;;;5.90;;
10641;SDS011;5369;49.586;8.646;2022-08-21T06:44:27;5.90;;;5.00;;
10641;SDS011;5369;49.586;8.646;2022-08-21T06:46:53;7.17;;;5.47;;
10641;SDS011;5369;49.586;8.646;2022-08-21T06:49:19;6.17;;;5.00;;
10641;SDS011;5369;49.586;8.646;2022-08-21T06:51:45;6.73;;;5.60;;
10641;SDS011;5369;49.586;8.646;2022-08-21T06:54:12;5.97;;;5.37;;
10641;SDS011;5369;49.586;8.646;2022-08-21T06:56:38;6.00;;;5.27;;
10641;SDS011;5369;49.586;8.646;2022-08-21T06:59:04;7.30;;;5.73;;
10641;SDS011;5369;49.586;8.646;2022-08-21T07:01:31;7.30;;;5.90;;
10641;SDS011;5369;49.586;8.646;2022-08-21T07:03:57;6.53;;;5.33;;
10641;SDS011;5369;49.586;8.646;2022-08-21T07:06:24;6.97;;;5.63;;
10641;SDS011;5369;49.586;8.646;2022-08-21T07:08:50;5.83;;;5.23;;
10641;SDS011;5369;49.586;8.646;2022-08-21T07:11:20;6.00;;;5.40;;
10641;SDS011;5369;49.586;8.646;2022-08-21T07:13:47;7.10;;;6.10;;
10641;SDS011;5369;49.586;8.646;2022-08-21T07:16:14;6.50;;;5.00;;
10641;SDS011;5369;49.586;8.646;2022-08-21T07:18:40;5.87;;;4.93;;
10641;SDS011;5369;49.586;8.646;2022-08-21T07:21:06;6.20;;;5.60;;
10641;SDS011;5369;49.586;8.646;2022-08-21T07:23:35;7.40;;;5.67;;
10641;SDS011;5369;49.586;8.646;2022-08-21T07:26:03;7.43;;;5.70;;
10641;SDS011;5369;49.586;8.646;2022-08-21T07:28:29;8.33;;;5.67;;
10641;SDS011;5369;49.586;8.646;2022-08-21T07:30:56;6.40;;;5.70;;
10641;SDS011;5369;49.586;8.646;2022-08-21T07:33:23;7.93;;;5.70;;
10641;SDS011;5369;49.586;8.646;2022-08-21T07:35:50;7.17;;;5.87;;
10641;SDS011;5369;49.586;8.646;2022-08-21T07:38:16;8.47;;;6.07;;
10641;SDS011;5369;49.586;8.646;2022-08-21T07:40:44;7.13;;;5.47;;
10641;SDS011;5369;49.586;8.646;2022-08-21T07:43:10;5.40;;;4.90;;
10641;SDS011;5369;49.586;8.646;2022-08-21T07:45:36;7.07;;;5.30;;
10641;SDS011;5369;49.586;8.646;2022-08-21T07:48:03;7.63;;;5.10;;
10641;SDS011;5369;49.586;8.646;2022-08-21T07:50:29;7.50;;;5.53;;
10641;SDS011;5369;49.586;8.646;2022-08-21T07:52:56;8.77;;;5.50;;
10641;SDS011;5369;49.586;8.646;2022-08-21T07:55:22;7.47;;;5.83;;
10641;SDS011;5369;49.586;8.646;2022-08-21T07:57:49;6.07;;;5.00;;
10641;SDS011;5369;49.586;8.646;2022-08-21T08:00:16;7.73;;;4.70;;
10641;SDS011;5369;49.586;8.646;2022-08-21T08:02:44;8.13;;;5.27;;
10641;SDS011;5369;49.586;8.646;2022-08-21T08:05:11;8.17;;;5.30;;
10641;SDS011;5369;49.586;8.646;2022-08-21T08:07:38;9.83;;;5.17;;
10641;SDS011;5369;49.586;8.646;2022-08-21T08:10:05;8.03;;;5.70;;
10641;SDS011;5369;49.586;8.646;2022-08-21T08:12:32;7.10;;;5.00;;
10641;SDS011;5369;49.586;8.646;2022-08-21T08:14:59;7.50;;;5.73;;
10641;SDS011;5369;49.586;8.646;2022-08-21T08:17:25;6.83;;;5.90;;
10641;SDS011;5369;49.586;8.646;2022-08-21T08:19:52;10.83;;;5.50;;
10641;SDS011;5369;49.586;8.646;2022-08-21T08:22:19;8.97;;;5.63;;
10641;SDS011;5369;49.586;8.646;2022-08-21T08:24:47;7.00;;;5.03;;
10641;SDS011;5369;49.586;8.646;2022-08-21T08:27:14;7.20;;;5.07;;
10641;SDS011;5369;49.586;8.646;2022-08-21T08:29:40;9.47;;;5.60;;
10641;SDS011;5369;49.586;8.646;2022-08-21T08:32:06;10.17;;;6.53;;
10641;SDS011;5369;49.586;8.646;2022-08-21T08:34:33;8.63;;;6.50;;
10641;SDS011;5369;49.586;8.646;2022-08-21T08:36:59;7.97;;;6.03;;
10641;SDS011;5369;49.586;8.646;2022-08-21T08:39:26;6.70;;;5.47;;
10641;SDS011;5369;49.586;8.646;2022-08-21T08:41:59;8.20;;;6.20;;
10641;SDS011;5369;49.586;8.646;2022-08-21T08:44:27;10.77;;;5.77;;
10641;SDS011;5369;49.586;8.646;2022-08-21T08:46:53;8.57;;;5.90;;
10641;SDS011;5369;49.586;8.646;2022-08-21T08:49:26;12.30;;;6.07;;
10641;SDS011;5369;49.586;8.646;2022-08-21T08:52:00;8.03;;;6.10;;
10641;SDS011;5369;49.586;8.646;2022-08-21T08:56:57;6.83;;;5.77;;
10641;SDS011;5369;49.586;8.646;2022-08-21T08:59:38;5.93;;;5.33;;
10641;SDS011;5369;49.586;8.646;2022-08-21T09:02:05;6.10;;;5.50;;
10641;SDS011;5369;49.586;8.646;2022-08-21T09:04:31;6.63;;;5.37;;
10641;SDS011;5369;49.586;8.646;2022-08-21T09:14:58;9.17;;;6.10;;
10641;SDS011;5369;49.586;8.646;2022-08-21T09:28:26;8.73;;;5.73;;
10641;SDS011;5369;49.586;8.646;2022-08-21T09:30:54;7.40;;;5.23;;
10641;SDS011;5369;49.586;8.646;2022-08-21T09:33:21;8.63;;;6.00;;
10641;SDS011;5369;49.586;8.646;2022-08-21T09:35:51;6.97;;;5.13;;
10641;SDS011;5369;49.586;8.646;2022-08-21T09:38:25;7.17;;;4.77;;
10641;SDS011;5369;49.586;8.646;2022-08-21T09:41:00;7.83;;;4.77;;
10641;SDS011;5369;49.586;8.646;2022-08-21T09:43:26;5.80;;;4.17;;
10641;SDS011;5369;49.586;8.646;2022-08-21T09:46:04;7.10;;;4.03;;
10641;SDS011;5369;49.586;8.646;2022-08-21T09:48:37;7.20;;;4.70;;
10641;SDS011;5369;49.586;8.646;2022-08-21T09:51:09;9.17;;;5.20;;
10641;SDS011;5369;49.586;8.646;2022-08-21T09:53:37;5.37;;;4.27;;
10641;SDS011;5369;49.586;8.646;2022-08-21T09:56:16;6.33;;;3.90;;
10641;SDS011;5369;49.586;8.646;2022-08-21T09:59:01;7.17;;;3.80;;
10641;SDS011;5369;49.586;8.646;2022-08-21T10:01:41;8.93;;;3.80;;
10641;SDS011;5369;49.586;8.646;2022-08-21T10:04:08;7.53;;;3.70;;
10641;SDS011;5369;49.586;8.646;2022-08-21T10:06:34;7.57;;;3.90;;
10641;SDS011;5369;49.586;8.646;2022-08-21T10:09:05;4.73;;;3.03;;
10641;SDS011;5369;49.586;8.646;2022-08-21T10:11:32;6.07;;;3.53;;
10641;SDS011;5369;49.586;8.646;2022-08-21T10:14:08;8.70;;;3.80;;
10641;SDS011;5369;49.586;8.646;2022-08-21T10:21:58;5.00;;;4.07;;
10641;SDS011;5369;49.586;8.646;2022-08-21T10:24:31;7.77;;;4.10;;
10641;SDS011;5369;49.586;8.646;2022-08-21T10:27:16;5.87;;;3.67;;
10641;SDS011;5369;49.586;8.646;2022-08-21T10:29:55;4.40;;;3.67;;
10641;SDS011;5369;49.586;8.646;2022-08-21T10:32:29;6.60;;;3.70;;
10641;SDS011;5369;49.586;8.646;2022-08-21T10:35:17;5.30;;;3.27;;
10641;SDS011;5369;49.586;8.646;2022-08-21T10:40:19;8.23;;;3.67;;
10641;SDS011;5369;49.586;8.646;2022-08-21T10:43:10;4.00;;;3.50;;
10641;SDS011;5369;49.586;8.646;2022-08-21T10:45:38;5.53;;;3.80;;
10641;SDS011;5369;49.586;8.646;2022-08-21T10:48:07;5.50;;;3.63;;
10641;SDS011;5369;49.586;8.646;2022-08-21T10:53:22;7.60;;;4.43;;
10641;SDS011;5369;49.586;8.646;2022-08-21T10:55:56;6.10;;;4.00;;
10641;SDS011;5369;49.586;8.646;2022-08-21T11:00:56;6.07;;;4.37;;
10641;SDS011;5369;49.586;8.646;2022-08-21T11:03:25;8.37;;;3.80;;
10641;SDS011;5369;49.586;8.646;2022-08-21T11:05:55;4.57;;;3.50;;
10641;SDS011;5369;49.586;8.646;2022-08-21T11:08:26;6.00;;;3.70;;
10641;SDS011;5369;49.586;8.646;2022-08-21T11:13:27;7.13;;;3.70;;
10641;SDS011;5369;49.586;8.646;2022-08-21T11:18:26;4.20;;;3.20;;
10641;SDS011;5369;49.586;8.646;2022-08-21T11:21:18;5.97;;;3.37;;
10641;SDS011;5369;49.586;8.646;2022-08-21T11:23:50;6.03;;;3.30;;
10641;SDS011;5369;49.586;8.646;2022-08-21T11:26:24;5.57;;;3.40;;
10641;SDS011;5369;49.586;8.646;2022-08-21T11:28:55;5.03;;;3.10;;
10641;SDS011;5369;49.586;8.646;2022-08-21T11:31:34;4.57;;;3.40;;
10641;SDS011;5369;49.586;8.646;2022-08-21T11:36:37;7.10;;;3.53;;
10641;SDS011;5369;49.586;8.646;2022-08-21T11:39:06;5.33;;;3.33;;
10641;SDS011;5369;49.586;8.646;2022-08-21T11:41:40;6.40;;;3.20;;
10641;SDS011;5369;49.586;8.646;2022-08-21T11:46:41;6.10;;;3.70;;
10641;SDS011;5369;49.586;8.646;2022-08-21T11:51:50;7.33;;;3.30;;
10641;SDS011;5369;49.586;8.646;2022-08-21T11:54:34;3.50;;;2.77;;
10641;SDS011;5369;49.586;8.646;2022-08-21T11:59:39;3.83;;;2.57;;
10641;SDS011;5369;49.586;8.646;2022-08-21T12:02:09;3.30;;;2.40;;
10641;SDS011;5369;49.586;8.646;2022-08-21T12:04:43;3.93;;;2.67;;
10641;SDS011;5369;49.586;8.646;2022-08-21T12:07:59;4.20;;;2.50;;
10641;SDS011;5369;49.586;8.646;2022-08-21T12:09:59;3.80;;;2.63;;
10641;SDS011;5369;49.586;8.646;2022-08-21T12:12:33;3.33;;;2.50;;
10641;SDS011;5369;49.586;8.646;2022-08-21T12:15:42;3.33;;;2.70;;
10641;SDS011;5369;49.586;8.646;2022-08-21T12:18:06;3.43;;;2.40;;
10641;SDS011;5369;49.586;8.646;2022-08-21T12:20:43;3.87;;;2.40;;
10641;SDS011;5369;49.586;8.646;2022-08-21T12:28:32;3.83;;;2.33;;
10641;SDS011;5369;49.586;8.646;2022-08-21T12:30:59;4.60;;;2.53;;
10641;SDS011;5369;49.586;8.646;2022-08-21T12:33:30;4.27;;;2.27;;
10641;SDS011;5369;49.586;8.646;2022-08-21T12:36:09;5.10;;;2.90;;
10641;SDS011;5369;49.586;8.646;2022-08-21T12:41:07;4.20;;;2.63;;
10641;SDS011;5369;49.586;8.646;2022-08-21T12:43:37;4.80;;;2.70;;
10641;SDS011;5369;49.586;8.646;2022-08-21T12:46:04;4.67;;;3.00;;
10641;SDS011;5369;49.586;8.646;2022-08-21T12:48:41;5.37;;;3.00;;
10641;SDS011;5369;49.586;8.646;2022-08-21T12:51:15;4.73;;;3.03;;
10641;SDS011;5369;49.586;8.646;2022-08-21T12:53:50;4.63;;;3.17;;
10641;SDS011;5369;49.586;8.646;2022-08-21T12:56:18;3.27;;;2.90;;
10641;SDS011;5369;49.586;8.646;2022-08-21T12:58:46;3.50;;;2.63;;
10641;SDS011;5369;49.586;8.646;2022-08-21T13:01:15;4.83;;;3.20;;
10641;SDS011;5369;49.586;8.646;2022-08-21T13:03:42;5.97;;;3.10;;
10641;SDS011;5369;49.586;8.646;2022-08-21T13:06:12;3.87;;;2.63;;
10641;SDS011;5369;49.586;8.646;2022-08-21T13:08:41;4.80;;;3.00;;
10641;SDS011;5369;49.586;8.646;2022-08-21T13:11:08;4.87;;;3.00;;
10641;SDS011;5369;49.586;8.646;2022-08-21T13:13:36;3.77;;;2.80;;
10641;SDS011;5369;49.586;8.646;2022-08-21T13:16:05;4.53;;;3.03;;
10641;SDS011;5369;49.586;8.646;2022-08-21T13:18:34;5.23;;;3.10;;
10641;SDS011;5369;49.586;8.646;2022-08-21T13:21:05;3.13;;;2.50;;
10641;SDS011;5369;49.586;8.646;2022-08-21T13:23:32;4.93;;;3.20;;
10641;SDS011;5369;49.586;8.646;2022-08-21T13:25:58;4.47;;;2.93;;
10641;SDS011;5369;49.586;8.646;2022-08-21T13:28:31;5.27;;;3.10;;
10641;SDS011;5369;49.586;8.646;2022-08-21T13:30:58;4.27;;;3.07;;
10641;SDS011;5369;49.586;8.646;2022-08-21T13:33:26;4.77;;;3.10;;
10641;SDS011;5369;49.586;8.646;2022-08-21T13:38:24;6.30;;;3.10;;
10641;SDS011;5369;49.586;8.646;2022-08-21T13:40:53;4.00;;;3.10;;
10641;SDS011;5369;49.586;8.646;2022-08-21T13:43:22;5.43;;;3.37;;
10641;SDS011;5369;49.586;8.646;2022-08-21T13:45:52;3.70;;;3.00;;
10641;SDS011;5369;49.586;8.646;2022-08-21T13:48:19;7.60;;;3.20;;
10641;SDS011;5369;49.586;8.646;2022-08-21T13:50:45;4.37;;;3.13;;
10641;SDS011;5369;49.586;8.646;2022-08-21T13:55:53;4.03;;;2.87;;
10641;SDS011;5369;49.586;8.646;2022-08-21T13:58:26;4.07;;;2.93;;
10641;SDS011;5369;49.586;8.646;2022-08-21T14:00:53;3.73;;;2.87;;
10641;SDS011;5369;49.586;8.646;2022-08-21T14:03:26;4.63;;;3.27;;
10641;SDS011;5369;49.586;8.646;2022-08-21T14:05:53;4.83;;;3.27;;
10641;SDS011;5369;49.586;8.646;2022-08-21T14:08:25;3.87;;;3.03;;
10641;SDS011;5369;49.586;8.646;2022-08-21T14:10:53;4.33;;;2.87;;
10641;SDS011;5369;49.586;8.646;2022-08-21T14:13:37;4.67;;;3.27;;
10641;SDS011;5369;49.586;8.646;2022-08-21T14:16:03;4.17;;;3.20;;
10641;SDS011;5369;49.586;8.646;2022-08-21T14:18:43;4.13;;;3.13;;
10641;SDS011;5369;49.586;8.646;2022-08-21T14:21:09;4.93;;;3.30;;
10641;SDS011;5369;49.586;8.646;2022-08-21T14:23:36;5.17;;;3.17;;
10641;SDS011;5369;49.586;8.646;2022-08-21T14:26:04;4.80;;;3.23;;
10641;SDS011;5369;49.586;8.646;2022-08-21T14:28:39;3.83;;;3.10;;
10641;SDS011;5369;49.586;8.646;2022-08-21T14:31:16;5.97;;;3.10;;
10641;SDS011;5369;49.586;8.646;2022-08-21T14:33:43;4.33;;;3.30;;
10641;SDS011;5369;49.586;8.646;2022-08-21T14:36:09;4.63;;;2.97;;
10641;SDS011;5369;49.586;8.646;2022-08-21T14:38:36;4.33;;;2.87;;
10641;SDS011;5369;49.586;8.646;2022-08-21T14:41:25;6.67;;;3.27;;
10641;SDS011;5369;49.586;8.646;2022-08-21T14:43:51;6.77;;;3.20;;
10641;SDS011;5369;49.586;8.646;2022-08-21T14:46:23;4.27;;;3.10;;
10641;SDS011;5369;49.586;8.646;2022-08-21T14:48:50;4.67;;;3.20;;
10641;SDS011;5369;49.586;8.646;2022-08-21T14:51:16;5.10;;;2.73;;
10641;SDS011;5369;49.586;8.646;2022-08-21T14:53:43;7.37;;;3.20;;
10641;SDS011;5369;49.586;8.646;2022-08-21T14:56:10;3.77;;;2.97;;
10641;SDS011;5369;49.586;8.646;2022-08-21T14:58:38;5.50;;;3.30;;
10641;SDS011;5369;49.586;8.646;2022-08-21T15:01:05;3.73;;;2.60;;
10641;SDS011;5369;49.586;8.646;2022-08-21T15:03:32;4.27;;;2.83;;
10641;SDS011;5369;49.586;8.646;2022-08-21T15:05:59;4.53;;;2.70;;
10641;SDS011;5369;49.586;8.646;2022-08-21T15:08:25;5.00;;;2.70;;
10641;SDS011;5369;49.586;8.646;2022-08-21T15:10:52;5.10;;;2.80;;
10641;SDS011;5369;49.586;8.646;2022-08-21T15:13:19;4.97;;;2.73;;
10641;SDS011;5369;49.586;8.646;2022-08-21T15:15:46;4.50;;;2.40;;
10641;SDS011;5369;49.586;8.646;2022-08-21T15:18:14;5.97;;;2.70;;
10641;SDS011;5369;49.586;8.646;2022-08-21T15:20:40;6.10;;;3.03;;
10641;SDS011;5369;49.586;8.646;2022-08-21T15:23:07;3.40;;;2.60;;
10641;SDS011;5369;49.586;8.646;2022-08-21T15:25:34;3.60;;;2.63;;
10641;SDS011;5369;49.586;8.646;2022-08-21T15:28:01;4.30;;;2.90;;
10641;SDS011;5369;49.586;8.646;2022-08-21T15:30:28;5.27;;;3.10;;
10641;SDS011;5369;49.586;8.646;2022-08-21T15:32:55;4.33;;;2.90;;
10641;SDS011;5369;49.586;8.646;2022-08-21T15:35:21;6.67;;;3.13;;
10641;SDS011;5369;49.586;8.646;2022-08-21T15:37:47;6.77;;;3.10;;
10641;SDS011;5369;49.586;8.646;2022-08-21T15:40:15;3.77;;;2.57;;
10641;SDS011;5369;49.586;8.646;2022-08-21T15:42:41;5.80;;;3.00;;
10641;SDS011;5369;49.586;8.646;2022-08-21T15:45:09;3.93;;;2.97;;
10641;SDS011;5369;49.586;8.646;2022-08-21T15:47:36;4.00;;;2.53;;
10641;SDS011;5369;49.586;8.646;2022-08-21T15:50:04;5.43;;;2.57;;
10641;SDS011;5369;49.586;8.646;2022-08-21T15:52:32;4.07;;;2.73;;
10641;SDS011;5369;49.586;8.646;2022-08-21T15:54:58;3.13;;;2.60;;
10641;SDS011;5369;49.586;8.646;2022-08-21T15:57:24;3.93;;;2.90;;
10641;SDS011;5369;49.586;8.646;2022-08-21T15:59:52;4.17;;;2.57;;
10641;SDS011;5369;49.586;8.646;2022-08-21T16:02:29;5.13;;;2.90;;
10641;SDS011;5369;49.586;8.646;2022-08-21T16:04:56;3.50;;;2.50;;
10641;SDS011;5369;49.586;8.646;2022-08-21T16:07:22;4.93;;;2.73;;
10641;SDS011;5369;49.586;8.646;2022-08-21T16:09:48;3.67;;;2.50;;
10641;SDS011;5369;49.586;8.646;2022-08-21T16:12:17;5.43;;;2.67;;